Mpanda Airport

Jump to: basic info | weather | comments

Related pages: nearby airports | nearby navaids | notams | map

Basic information (top)

Codes: HTMP
Location: lon -6.350000, lat 31.083000, elev 3,520 ft / 1,073 m msl
Status: small_airport

Weather (top)

Current conditions for Sumbawanga Airport 103nm (191km) SSE (rec'd 2014/04/21 03:00Z):

HTSU 210300Z 11003KT 9999 BKN017 SCT080 16/15 Q1021

Airport forecast for Julius Nyerere International Airport 485nm (899km) E (rec'd 2014/04/21 00:00Z):

TAF HTDA 202200Z 2100/2206 00000KT 9999 TS/SHRA SCT022 FEW023CB BKN080 PROB30 
      TEMPO 2104/2112 18005KT 5000 TSRA FM 211500 24005KT 9999 SCT023 FEW025CB SCT080 PROB30 
      TEMPO 2202/2206 00000KT 5000 TSRA BKN021 FEW022CB BKN080

Latest comments (top)

re: Uwanja wa ndege Mpanda: Thanks God Mpanda is on the right path, ... [read]

Uwanja wa ndege Mpanda: Uwanja ni mzuri saana, [read]

matengenezo: uwanja ukikamilika utakuwa mzuri.mmejitahidi. [read]

More... (top)

See also NOTAMs and nearby airports and navaids, or visit the Mpanda Airport page at the main OurAirports website..